Time;durP1;ratioP1;P1;durP2;ratioP2;P2;SDS_P1;SDS_P2;PMS_P1;PMS_P2;Temp;Humidity;BMP_temperature;BMP_pressure;BME280_temperature;BME280_humidity;BME280_pressure;Samples;Min_cycle;Max_cycle;Signal;HPM_P1;HPM_P2
2023/04/23 00:00:24;;;;;;;8.37;7.10;;;;;;;12.05;100.00;95628.72;7400230;19;20348;-76
2023/04/23 00:02:53;;;;;;;7.30;6.57;;;;;;;11.78;100.00;95594.16;7396157;19;20341;-75
2023/04/23 00:05:22;;;;;;;6.47;5.93;;;;;;;11.90;100.00;95622.41;7398955;19;20480;-76
2023/04/23 00:07:49;;;;;;;8.07;6.00;;;;;;;11.91;100.00;95615.22;7397389;19;20687;-76
2023/04/23 00:10:17;;;;;;;6.80;5.77;;;;;;;11.96;100.00;95591.84;7400188;19;20400;-76
2023/04/23 00:12:44;;;;;;;6.00;5.50;;;;;;;12.06;100.00;95609.06;7395269;19;20884;-75
2023/04/23 00:15:12;;;;;;;6.47;5.97;;;;;;;11.92;100.00;95591.03;7394071;19;20965;-75
2023/04/23 00:17:39;;;;;;;5.87;5.30;;;;;;;11.89;100.00;95569.78;7395312;19;20356;-75
2023/04/23 00:20:08;;;;;;;6.70;5.13;;;;;;;12.13;100.00;95599.31;7395524;19;20347;-76
2023/04/23 00:22:35;;;;;;;7.60;7.00;;;;;;;11.99;100.00;95567.28;7400270;19;20373;-76
2023/04/23 00:25:02;;;;;;;6.33;5.73;;;;;;;11.84;100.00;95555.69;7394449;19;20424;-76
2023/04/23 00:27:29;;;;;;;6.70;6.10;;;;;;;11.84;100.00;95562.88;7397034;19;20382;-76
2023/04/23 00:29:56;;;;;;;6.80;6.17;;;;;;;11.99;100.00;95563.88;7397460;19;20380;-76
2023/04/23 00:32:23;;;;;;;5.13;4.73;;;;;;;11.94;100.00;95578.19;7395342;19;20370;-76
2023/04/23 00:34:50;;;;;;;5.80;5.30;;;;;;;12.09;100.00;95582.59;7396134;19;20401;-76
2023/04/23 00:37:17;;;;;;;6.60;5.60;;;;;;;12.11;100.00;95569.00;7399298;19;20410;-76
2023/04/23 00:39:44;;;;;;;6.53;5.40;;;;;;;12.02;100.00;95563.16;7395373;19;20824;-76
2023/04/23 00:42:12;;;;;;;5.73;5.30;;;;;;;12.12;100.00;95557.28;7395010;19;20386;-76
2023/04/23 00:44:42;;;;;;;6.23;5.73;;;;;;;12.25;100.00;95587.78;7394128;19;20472;-76
2023/04/23 00:47:11;;;;;;;7.20;6.10;;;;;;;12.32;100.00;95598.50;7396738;19;20886;-76
2023/04/23 00:49:38;;;;;;;5.43;4.97;;;;;;;12.35;100.00;95589.84;7397549;19;20389;-76
2023/04/23 00:52:05;;;;;;;5.43;5.03;;;;;;;12.27;100.00;95587.41;7395499;19;20396;-75
2023/04/23 00:54:32;;;;;;;6.57;5.97;;;;;;;12.22;100.00;95583.19;7394745;19;20446;-76
2023/04/23 00:57:00;;;;;;;5.17;4.67;;;;;;;12.19;100.00;95594.50;7398135;19;20380;-75
2023/04/23 00:59:28;;;;;;;6.73;5.40;;;;;;;12.22;100.00;95587.72;7395719;19;20333;-76
2023/04/23 01:01:55;;;;;;;7.90;6.10;;;;;;;12.12;100.00;95579.25;7399684;19;20333;-76
2023/04/23 01:04:26;;;;;;;6.20;5.70;;;;;;;12.06;100.00;95596.56;7393462;19;20417;-76
2023/04/23 01:06:54;;;;;;;4.93;4.63;;;;;;;11.69;100.00;95567.13;7398585;19;20456;-75
2023/04/23 01:09:22;;;;;;;5.97;5.47;;;;;;;11.68;100.00;95573.56;7396826;19;20405;-76
2023/04/23 01:11:50;;;;;;;9.50;5.70;;;;;;;11.75;100.00;95591.44;7394982;19;20376;-76
2023/04/23 01:14:17;;;;;;;6.23;5.73;;;;;;;11.71;100.00;95588.72;7393766;19;20875;-76
2023/04/23 01:16:45;;;;;;;6.83;6.23;;;;;;;11.66;100.00;95581.09;7394007;19;20372;-76
2023/04/23 01:19:14;;;;;;;7.13;5.77;;;;;;;11.78;100.00;95586.22;7393404;19;20399;-76
2023/04/23 01:21:41;;;;;;;6.57;5.83;;;;;;;11.71;100.00;95582.66;7394193;19;20397;-76
2023/04/23 01:24:10;;;;;;;5.97;5.47;;;;;;;11.74;100.00;95574.78;7394478;19;20414;-76
2023/04/23 01:26:38;;;;;;;6.93;6.17;;;;;;;11.59;100.00;95559.00;7394940;19;20377;-76
2023/04/23 01:29:06;;;;;;;6.60;6.00;;;;;;;11.73;100.00;95572.47;7396226;19;20409;-76
2023/04/23 01:31:33;;;;;;;6.70;6.10;;;;;;;11.70;100.00;95562.59;7395052;19;20408;-76
2023/04/23 01:34:00;;;;;;;6.63;6.13;;;;;;;11.80;100.00;95573.41;7396867;19;20363;-76
2023/04/23 01:36:28;;;;;;;6.53;5.93;;;;;;;11.78;100.00;95575.63;7394850;19;20424;-76
2023/04/23 01:38:56;;;;;;;8.33;7.53;;;;;;;11.77;100.00;95594.53;7396455;19;20389;-76
2023/04/23 01:41:22;;;;;;;8.90;6.57;;;;;;;11.68;100.00;95591.31;7395149;19;20372;-76
2023/04/23 01:43:49;;;;;;;6.13;5.53;;;;;;;11.39;100.00;95585.50;7395954;19;20743;-76
2023/04/23 01:46:17;;;;;;;6.27;5.77;;;;;;;11.44;100.00;95576.50;7395055;19;20376;-76
2023/04/23 01:48:44;;;;;;;8.43;6.30;;;;;;;11.40;100.00;95565.84;7394897;19;20406;-76
2023/04/23 01:51:10;;;;;;;6.47;5.93;;;;;;;11.45;100.00;95568.19;7394568;19;20376;-76
2023/04/23 01:53:37;;;;;;;7.83;7.03;;;;;;;11.60;100.00;95587.75;7395320;19;20371;-76
2023/04/23 01:56:08;;;;;;;7.23;6.00;;;;;;;11.64;100.00;95590.50;7392778;19;20438;-76
2023/04/23 01:58:35;;;;;;;7.43;6.30;;;;;;;11.54;100.00;95568.00;7397019;19;20392;-76
2023/04/23 02:01:02;;;;;;;7.23;6.60;;;;;;;11.69;100.00;95592.84;7428477;19;20408;-76
2023/04/23 02:03:30;;;;;;;10.20;7.03;;;;;;;11.58;100.00;95584.72;7422433;19;20368;-76
2023/04/23 02:05:59;;;;;;;7.93;6.77;;;;;;;11.56;100.00;95592.25;7393183;19;21095;-76
2023/04/23 02:08:27;;;;;;;6.90;6.30;;;;;;;11.47;100.00;95565.97;7396277;19;20349;-76
2023/04/23 02:10:54;;;;;;;7.40;6.77;;;;;;;11.27;100.00;95555.75;7396245;19;20360;-76
2023/04/23 02:13:20;;;;;;;7.20;6.50;;;;;;;11.37;100.00;95571.09;7395931;19;20384;-76
2023/04/23 02:15:48;;;;;;;6.37;5.83;;;;;;;11.49;100.00;95590.25;7394537;19;20431;-76
2023/04/23 02:18:15;;;;;;;7.07;6.47;;;;;;;11.51;100.00;95592.53;7395839;19;20396;-76
2023/04/23 02:20:42;;;;;;;10.03;6.83;;;;;;;11.50;100.00;95596.28;7395226;19;20381;-76
2023/04/23 02:23:10;;;;;;;8.00;6.57;;;;;;;11.41;100.00;95583.25;7395724;19;20403;-76
2023/04/23 02:25:38;;;;;;;6.80;5.70;;;;;;;11.24;100.00;95581.81;7394556;19;20412;-76
2023/04/23 02:28:06;;;;;;;7.20;6.43;;;;;;;11.30;100.00;95587.56;7395553;19;20929;-76
2023/04/23 02:30:34;;;;;;;6.23;5.73;;;;;;;11.36;100.00;95602.09;7395823;19;20340;-76
2023/04/23 02:33:02;;;;;;;7.03;6.30;;;;;;;11.31;100.00;95583.06;7396022;19;20491;-76
2023/04/23 02:35:30;;;;;;;7.40;6.77;;;;;;;11.42;100.00;95591.97;7394437;19;20413;-76
2023/04/23 02:37:57;;;;;;;7.10;6.50;;;;;;;11.32;100.00;95587.22;7395710;19;20372;-76
2023/04/23 02:40:24;;;;;;;6.80;6.30;;;;;;;11.29;100.00;95588.69;7394682;19;20749;-76
2023/04/23 02:42:51;;;;;;;6.50;5.90;;;;;;;10.80;100.00;95549.53;7414431;19;20373;-76
2023/04/23 02:45:18;;;;;;;7.63;6.70;;;;;;;10.74;100.00;95568.66;7428064;19;20433;-76
2023/04/23 02:47:44;;;;;;;6.57;5.87;;;;;;;10.80;100.00;95560.09;7400477;19;20458;-76
2023/04/23 02:50:11;;;;;;;8.40;6.97;;;;;;;10.99;100.00;95585.06;7394982;19;20411;-76
2023/04/23 02:52:38;;;;;;;6.77;5.70;;;;;;;10.89;100.00;95565.97;7393043;19;20389;-76
2023/04/23 02:55:06;;;;;;;6.60;6.00;;;;;;;11.09;100.00;95606.47;7392512;19;20464;-76
2023/04/23 02:57:33;;;;;;;8.70;6.53;;;;;;;10.89;100.00;95571.25;7392766;19;20411;-76
2023/04/23 03:00:00;;;;;;;6.97;6.37;;;;;;;10.86;100.00;95574.59;7394392;19;20384;-76
2023/04/23 03:02:34;;;;;;;6.83;6.23;;;;;;;11.03;100.00;95599.13;7399947;19;20421;-76
2023/04/23 03:05:02;;;;;;;7.00;6.50;;;;;;;11.02;100.00;95605.53;7400494;19;20435;-76
2023/04/23 03:07:29;;;;;;;6.97;6.23;;;;;;;10.88;100.00;95598.81;7400544;19;20368;-76
2023/04/23 03:09:56;;;;;;;6.90;6.30;;;;;;;10.65;100.00;95593.41;7401800;19;20380;-76
2023/04/23 03:12:23;;;;;;;7.27;6.53;;;;;;;10.46;100.00;95558.25;7400580;19;20406;-76
2023/04/23 03:14:50;;;;;;;12.00;6.60;;;;;;;10.79;100.00;95586.91;7399668;19;20412;-76
2023/04/23 03:17:18;;;;;;;8.77;8.07;;;;;;;10.67;100.00;95566.63;7399929;19;20412;-76
2023/04/23 03:19:47;;;;;;;6.93;6.40;;;;;;;10.99;100.00;95593.00;7401971;19;20372;-76
2023/04/23 03:22:14;;;;;;;11.07;6.50;;;;;;;10.64;100.00;95581.31;7400425;19;20450;-76
2023/04/23 03:24:41;;;;;;;7.93;6.23;;;;;;;10.63;100.00;95600.91;7401963;19;20941;-76
2023/04/23 03:27:09;;;;;;;6.80;6.10;;;;;;;10.89;100.00;95626.81;7400224;19;20483;-76
2023/04/23 03:29:36;;;;;;;7.00;6.30;;;;;;;10.75;100.00;95602.69;7401641;19;20380;-76
2023/04/23 03:32:03;;;;;;;7.17;6.50;;;;;;;10.68;100.00;95613.09;7400193;19;20380;-76
2023/04/23 03:34:30;;;;;;;7.70;6.10;;;;;;;10.67;100.00;95603.63;7400445;19;20432;-76
2023/04/23 03:36:57;;;;;;;6.50;6.00;;;;;;;10.74;100.00;95624.19;7400870;19;20469;-76
2023/04/23 03:39:24;;;;;;;7.00;5.97;;;;;;;10.83;100.00;95616.84;7401383;19;20361;-76
2023/04/23 03:41:53;;;;;;;6.30;5.90;;;;;;;10.70;100.00;95595.03;7401447;19;20344;-76
2023/04/23 03:44:24;;;;;;;6.10;5.50;;;;;;;10.70;100.00;95605.63;7401017;19;20438;-76
2023/04/23 03:46:51;;;;;;;7.70;7.07;;;;;;;10.72;100.00;95615.84;7400117;19;20408;-76
2023/04/23 03:49:19;;;;;;;6.50;5.90;;;;;;;10.47;100.00;95597.53;7397923;19;20723;-76
2023/04/23 03:51:46;;;;;;;7.70;6.30;;;;;;;10.38;100.00;95577.69;7399950;19;20435;-76
2023/04/23 03:54:14;;;;;;;8.37;7.10;;;;;;;10.55;100.00;95593.97;7397315;19;20432;-76
2023/04/23 03:56:51;;;;;;;6.77;6.23;;;;;;;10.74;100.00;95613.63;7400077;19;20907;-76
2023/04/23 03:59:25;;;;;;;6.27;5.77;;;;;;;10.50;100.00;95572.28;7398624;19;20373;-76
2023/04/23 04:01:54;;;;;;;6.77;6.17;;;;;;;10.74;100.00;95611.75;7400202;19;20376;-76
2023/04/23 04:04:24;;;;;;;7.60;7.00;;;;;;;10.72;100.00;95606.03;7398127;19;20436;-76
2023/04/23 04:06:51;;;;;;;7.50;6.90;;;;;;;10.70;100.00;95596.91;7399984;19;20519;-76
2023/04/23 04:09:18;;;;;;;6.80;6.30;;;;;;;10.79;100.00;95602.75;7399983;19;20707;-78
2023/04/23 04:11:45;;;;;;;7.17;6.50;;;;;;;10.58;100.00;95605.72;7401753;19;20373;-77
2023/04/23 04:14:12;;;;;;;7.30;6.60;;;;;;;10.68;100.00;95622.91;7401103;19;20924;-78
2023/04/23 04:16:39;;;;;;;10.60;6.27;;;;;;;10.55;100.00;95615.09;7401912;19;20377;-78
2023/04/23 04:19:06;;;;;;;6.83;6.20;;;;;;;10.50;100.00;95596.09;7400443;19;20369;-78
2023/04/23 04:21:33;;;;;;;8.13;7.43;;;;;;;10.61;100.00;95610.31;7401708;19;20417;-78
2023/04/23 04:24:06;;;;;;;6.63;6.03;;;;;;;10.54;100.00;95636.56;7400372;19;20377;-78
2023/04/23 04:26:33;;;;;;;5.80;5.37;;;;;;;10.53;100.00;95624.47;7402637;19;20735;-78
2023/04/23 04:29:00;;;;;;;5.80;5.40;;;;;;;10.40;100.00;95613.22;7401120;19;20420;-78
2023/04/23 04:31:27;;;;;;;6.57;5.90;;;;;;;10.59;100.00;95629.16;7398792;19;20373;-78
2023/04/23 04:33:54;;;;;;;8.73;6.03;;;;;;;10.62;100.00;95628.47;7401984;19;20353;-78
2023/04/23 04:36:24;;;;;;;6.13;5.63;;;;;;;10.72;100.00;95626.41;7398981;19;20454;-77
2023/04/23 04:38:50;;;;;;;8.30;6.70;;;;;;;10.86;100.00;95653.94;7399613;19;20364;-76
2023/04/23 04:41:18;;;;;;;5.67;5.13;;;;;;;10.72;100.00;95632.47;7398315;19;20345;-76
2023/04/23 04:43:47;;;;;;;6.53;5.93;;;;;;;10.72;100.00;95643.03;7398194;19;20865;-76
2023/04/23 04:46:14;;;;;;;7.53;6.80;;;;;;;10.44;100.00;95610.69;7396734;19;20349;-76
2023/04/23 04:48:41;;;;;;;6.43;5.93;;;;;;;10.56;100.00;95624.56;7398101;19;20376;-76
2023/04/23 04:51:08;;;;;;;7.20;6.30;;;;;;;10.81;100.00;95650.78;7398248;19;20361;-76
2023/04/23 04:53:34;;;;;;;7.80;6.13;;;;;;;10.87;100.00;95658.13;7397895;19;20699;-76
2023/04/23 04:56:01;;;;;;;7.00;6.40;;;;;;;10.85;100.00;95646.34;7394738;19;20437;-76
2023/04/23 04:58:28;;;;;;;11.47;6.53;;;;;;;10.85;100.00;95644.47;7398224;19;20337;-76
2023/04/23 05:00:55;;;;;;;6.60;5.97;;;;;;;10.61;100.00;95650.72;7397935;19;20901;-76
2023/04/23 05:03:22;;;;;;;7.17;6.63;;;;;;;10.11;100.00;95624.94;7399330;19;20348;-76
2023/04/23 05:05:49;;;;;;;6.43;5.93;;;;;;;10.06;100.00;95631.25;7394939;19;20444;-76
2023/04/23 05:08:20;;;;;;;6.87;6.27;;;;;;;10.31;100.00;95645.13;7399603;19;20427;-76
2023/04/23 05:10:49;;;;;;;7.23;6.47;;;;;;;10.44;100.00;95658.25;7396292;19;20893;-76
2023/04/23 05:13:16;;;;;;;7.23;6.57;;;;;;;10.39;100.00;95647.91;7397665;19;20396;-76
2023/04/23 05:15:45;;;;;;;7.13;6.53;;;;;;;10.53;100.00;95654.31;7397609;19;20408;-76
2023/04/23 05:18:11;;;;;;;7.43;6.83;;;;;;;10.36;100.00;95659.94;7398189;19;20397;-78
2023/04/23 05:20:38;;;;;;;8.13;6.67;;;;;;;10.37;100.00;95653.53;7398158;19;20425;-78
2023/04/23 05:23:05;;;;;;;7.50;6.80;;;;;;;10.35;100.00;95629.34;7399149;19;20471;-78
2023/04/23 05:25:33;;;;;;;7.60;7.00;;;;;;;10.39;100.00;95642.63;7396108;19;20436;-77
2023/04/23 05:28:00;;;;;;;7.47;6.77;;;;;;;10.21;100.00;95611.28;7398229;19;20380;-76
2023/04/23 05:30:27;;;;;;;7.57;6.97;;;;;;;10.48;100.00;95624.72;7395835;19;20927;-76
2023/04/23 05:32:54;;;;;;;7.13;6.33;;;;;;;10.61;100.00;95653.38;7394530;19;20398;-76
2023/04/23 05:35:21;;;;;;;8.40;7.17;;;;;;;10.82;100.00;95665.56;7391929;19;20412;-76
2023/04/23 05:37:48;;;;;;;7.37;6.57;;;;;;;10.68;100.00;95639.53;7394064;19;20417;-76
2023/04/23 05:40:15;;;;;;;7.90;6.40;;;;;;;10.75;100.00;95649.53;7395759;19;20394;-75
2023/04/23 05:42:41;;;;;;;7.93;6.83;;;;;;;11.04;100.00;95672.84;7394426;19;20372;-76
2023/04/23 05:45:09;;;;;;;8.57;7.70;;;;;;;10.87;100.00;95654.72;7392145;19;20449;-76
2023/04/23 05:47:36;;;;;;;11.30;6.03;;;;;;;11.11;100.00;95665.06;7392756;19;20378;-75
2023/04/23 05:50:04;;;;;;;6.50;5.90;;;;;;;11.61;100.00;95700.50;7393161;19;20905;-76
2023/04/23 05:52:32;;;;;;;6.07;5.47;;;;;;;11.58;100.00;95681.91;7394171;19;20376;-76
2023/04/23 05:54:59;;;;;;;5.87;5.00;;;;;;;11.72;100.00;95692.78;7393472;19;20377;-76
2023/04/23 05:57:26;;;;;;;4.47;4.10;;;;;;;11.49;100.00;95645.06;7397360;19;20443;-76
2023/04/23 05:59:52;;;;;;;5.97;4.47;;;;;;;11.55;100.00;95670.13;7396986;19;20725;-75
2023/04/23 06:02:19;;;;;;;5.17;4.73;;;;;;;11.83;100.00;95715.72;7397750;19;20721;-76
2023/04/23 06:04:50;;;;;;;5.30;4.80;;;;;;;11.57;100.00;95678.47;7396214;19;20416;-76
2023/04/23 06:07:18;;;;;;;5.20;4.70;;;;;;;11.54;100.00;95682.59;7394208;19;20387;-76
2023/04/23 06:09:45;;;;;;;5.43;4.60;;;;;;;11.40;100.00;95677.00;7396409;19;20392;-76
2023/04/23 06:12:12;;;;;;;4.10;3.80;;;;;;;11.23;100.00;95680.06;7394371;19;20397;-76
2023/04/23 06:14:39;;;;;;;4.50;4.17;;;;;;;11.32;100.00;95690.44;7396109;19;20761;-75
2023/04/23 06:17:06;;;;;;;3.67;3.37;;;;;;;11.36;100.00;95697.34;7395314;19;20373;-77
2023/04/23 06:19:33;;;;;;;5.10;4.60;;;;;;;11.42;100.00;95697.84;7395599;19;20780;-76
2023/04/23 06:22:00;;;;;;;3.63;3.30;;;;;;;11.32;100.00;95701.03;7393858;19;20544;-76
2023/04/23 06:24:27;;;;;;;3.97;3.00;;;;;;;11.47;100.00;95734.63;7395276;19;20389;-75
2023/04/23 06:26:55;;;;;;;3.67;3.37;;;;;;;11.27;100.00;95707.38;7391876;19;20361;-75
2023/04/23 06:29:23;;;;;;;3.40;3.00;;;;;;;11.22;100.00;95716.34;7395395;19;20432;-75
2023/04/23 06:32:00;;;;;;;3.77;3.40;;;;;;;11.10;100.00;95708.50;7394012;19;20395;-76
2023/04/23 06:34:27;;;;;;;4.47;4.07;;;;;;;10.99;100.00;95706.72;7395066;19;20432;-76
2023/04/23 06:36:54;;;;;;;3.57;3.27;;;;;;;11.16;100.00;95732.81;7401752;19;20365;-76
2023/04/23 06:39:21;;;;;;;3.80;3.50;;;;;;;11.04;100.00;95711.75;7401564;19;20888;-76
2023/04/23 06:41:47;;;;;;;3.30;3.00;;;;;;;10.81;100.00;95693.84;7401666;19;20727;-75
2023/04/23 06:44:21;;;;;;;5.20;3.30;;;;;;;11.11;100.00;95730.44;7402797;19;20420;-76
2023/04/23 06:46:50;;;;;;;5.07;3.47;;;;;;;10.90;100.00;95698.97;7398825;19;20916;-76
2023/04/23 06:49:17;;;;;;;4.90;4.10;;;;;;;10.99;100.00;95714.66;7403464;19;20387;-76
2023/04/23 06:51:44;;;;;;;4.87;4.37;;;;;;;11.17;100.00;95737.00;7401906;19;20376;-76
2023/04/23 06:54:11;;;;;;;4.13;3.57;;;;;;;11.15;100.00;95731.28;7402379;19;20429;-76
2023/04/23 06:56:38;;;;;;;3.90;3.47;;;;;;;11.02;100.00;95725.31;7398731;19;20376;-76
2023/04/23 06:59:05;;;;;;;4.37;3.97;;;;;;;10.91;100.00;95719.78;7407173;19;20341;-76
2023/04/23 07:01:35;;;;;;;3.83;3.53;;;;;;;10.95;100.00;95722.50;7406158;19;20396;-75
2023/04/23 07:04:01;;;;;;;4.83;4.43;;;;;;;10.99;100.00;95726.03;7401160;19;20719;-75
2023/04/23 07:06:28;;;;;;;4.43;4.13;;;;;;;10.96;100.00;95708.19;7398374;19;20368;-75
2023/04/23 07:08:55;;;;;;;5.37;3.90;;;;;;;10.99;100.00;95722.59;7400139;19;20380;-74
2023/04/23 07:11:22;;;;;;;4.67;4.07;;;;;;;10.70;100.00;95678.88;7401598;19;20380;-75
2023/04/23 07:13:49;;;;;;;3.57;3.30;;;;;;;10.91;100.00;95716.38;7399254;19;20885;-74
2023/04/23 07:16:16;;;;;;;5.23;4.80;;;;;;;10.92;100.00;95720.56;7399418;19;20380;-75
2023/04/23 07:18:47;;;;;;;6.83;6.20;;;;;;;11.02;100.00;95735.91;7400121;19;20407;-75
2023/04/23 07:21:14;;;;;;;4.67;3.40;;;;;;;11.09;100.00;95724.72;7401105;19;20777;-75
2023/04/23 07:23:41;;;;;;;4.33;4.03;;;;;;;11.21;100.00;95716.66;7399437;19;20403;-74
2023/04/23 07:26:08;;;;;;;4.67;4.10;;;;;;;11.37;100.00;95733.28;7398654;19;20449;-75
2023/04/23 07:28:35;;;;;;;6.00;5.50;;;;;;;11.40;100.00;95734.47;7398264;19;20953;-74
2023/04/23 07:31:02;;;;;;;5.70;4.87;;;;;;;11.14;100.00;95693.47;7398226;19;20404;-74
2023/04/23 07:33:29;;;;;;;4.00;3.70;;;;;;;11.37;100.00;95735.94;7398791;19;20401;-74
2023/04/23 07:35:55;;;;;;;3.97;3.63;;;;;;;11.14;100.00;95712.00;7397209;19;20430;-74
2023/04/23 07:38:22;;;;;;;3.77;3.47;;;;;;;11.16;100.00;95716.94;7396856;19;20690;-75
2023/04/23 07:40:49;;;;;;;5.07;3.80;;;;;;;11.31;100.00;95731.25;7399983;19;20401;-75
2023/04/23 07:43:16;;;;;;;3.90;3.60;;;;;;;11.43;100.00;95741.72;7398790;19;20348;-74
2023/04/23 07:45:43;;;;;;;5.13;4.73;;;;;;;11.34;100.00;95726.03;7396854;19;20417;-75
2023/04/23 07:48:10;;;;;;;5.97;5.47;;;;;;;11.10;100.00;95715.69;7397185;19;20368;-75
2023/04/23 07:50:37;;;;;;;5.63;4.63;;;;;;;11.13;100.00;95715.75;7398565;19;20393;-75
2023/04/23 07:53:04;;;;;;;5.10;4.60;;;;;;;11.15;100.00;95721.47;7397321;19;20369;-75
2023/04/23 07:55:31;;;;;;;3.93;3.50;;;;;;;11.28;100.00;95750.47;7398012;19;20412;-74
2023/04/23 07:57:58;;;;;;;4.10;3.80;;;;;;;11.18;100.00;95718.13;7397963;19;20389;-75
2023/04/23 08:00:25;;;;;;;10.63;9.53;;;;;;;11.40;100.00;95742.41;7400658;19;20668;-74
2023/04/23 08:02:52;;;;;;;5.87;3.83;;;;;;;11.51;100.00;95748.72;7394358;19;20421;-74
2023/04/23 08:05:20;;;;;;;6.00;5.40;;;;;;;11.39;100.00;95730.31;7396349;19;20815;-75
2023/04/23 08:07:47;;;;;;;4.80;4.40;;;;;;;11.46;100.00;95731.22;7396781;19;20683;-75
2023/04/23 08:10:13;;;;;;;4.53;4.13;;;;;;;11.41;100.00;95723.53;7398465;19;20388;-75
2023/04/23 08:12:40;;;;;;;6.93;3.73;;;;;;;11.24;100.00;95698.25;7396715;19;20377;-75
2023/04/23 08:15:08;;;;;;;4.40;4.10;;;;;;;11.52;100.00;95740.44;7398097;19;20404;-75
2023/04/23 08:17:39;;;;;;;3.63;3.20;;;;;;;11.37;100.00;95716.66;7396811;19;20391;-75
2023/04/23 08:20:07;;;;;;;4.60;4.20;;;;;;;11.47;100.00;95724.03;7398941;19;20418;-75
2023/04/23 08:22:34;;;;;;;4.23;3.53;;;;;;;11.31;100.00;95700.25;7396338;19;20361;-76
2023/04/23 08:25:01;;;;;;;4.57;4.03;;;;;;;11.57;100.00;95723.50;7392944;19;20431;-76
2023/04/23 08:27:27;;;;;;;5.20;4.70;;;;;;;11.57;100.00;95722.72;7397485;19;20373;-75
2023/04/23 08:30:10;;;;;;;4.30;3.90;;;;;;;11.67;100.00;95703.66;7428969;19;20436;-74
2023/04/23 08:32:39;;;;;;;4.60;4.20;;;;;;;11.79;100.00;95724.72;7432126;19;20400;-75
2023/04/23 08:35:07;;;;;;;5.10;4.60;;;;;;;11.72;100.00;95706.78;7428652;19;20444;-74
2023/04/23 08:37:34;;;;;;;4.13;3.83;;;;;;;11.92;100.00;95714.75;7433348;19;20372;-76
2023/04/23 08:40:01;;;;;;;4.70;4.30;;;;;;;11.85;100.00;95710.09;7429987;19;20384;-76
2023/04/23 08:42:36;;;;;;;4.83;4.43;;;;;;;11.97;100.00;95728.47;7432673;19;20340;-74
2023/04/23 08:45:04;;;;;;;5.00;4.60;;;;;;;12.02;100.00;95730.06;7429995;19;20391;-74
2023/04/23 08:47:32;;;;;;;6.03;5.53;;;;;;;12.01;100.00;95733.84;7431707;19;20422;-74
2023/04/23 08:50:00;;;;;;;7.60;7.00;;;;;;;12.01;100.00;95721.38;7427219;19;20404;-73
2023/04/23 08:52:32;;;;;;;7.40;5.63;;;;;;;12.18;100.00;95745.91;7431761;19;20405;-74
2023/04/23 08:55:03;;;;;;;23.33;21.13;;;;;;;12.32;100.00;95746.94;7428923;19;20944;-74
2023/04/23 08:57:30;;;;;;;10.00;8.87;;;;;;;12.00;100.00;95703.16;7430795;19;20384;-74
2023/04/23 09:00:03;;;;;;;5.07;4.67;;;;;;;12.17;100.00;95723.94;7429951;19;20363;-74
2023/04/23 09:02:33;;;;;;;5.30;4.80;;;;;;;12.25;100.00;95716.88;7429173;19;20459;-74
2023/04/23 09:05:03;;;;;;;10.80;9.70;;;;;;;12.22;100.00;95734.25;7428765;19;20384;-74
2023/04/23 09:07:30;;;;;;;6.07;5.47;;;;;;;12.19;100.00;95740.25;7430213;19;20392;-74
2023/04/23 09:09:57;;;;;;;8.20;5.50;;;;;;;11.99;100.00;95707.72;7427987;19;20748;-74
2023/04/23 09:12:24;;;;;;;4.53;4.03;;;;;;;12.03;100.00;95703.25;7429250;19;20376;-74
2023/04/23 09:14:55;;;;;;;5.27;4.77;;;;;;;12.11;100.00;95698.84;7430493;19;20956;-74
2023/04/23 09:17:23;;;;;;;4.70;4.37;;;;;;;12.17;100.00;95708.06;7429181;19;20399;-74
2023/04/23 09:19:52;;;;;;;4.60;4.27;;;;;;;12.58;100.00;95734.91;7430186;19;20410;-74
2023/04/23 09:22:45;;;;;;;3.80;3.50;;;;;;;12.77;100.00;95734.06;7428110;19;20916;-74
2023/04/23 09:25:21;;;;;;;7.47;6.60;;;;;;;12.87;100.00;95730.81;7427347;19;20419;-74
2023/04/23 09:27:50;;;;;;;6.33;5.83;;;;;;;12.84;100.00;95728.88;7432030;19;20351;-73
2023/04/23 09:30:18;;;;;;;8.07;7.17;;;;;;;12.83;100.00;95727.34;7426687;19;20379;-73
2023/04/23 09:32:46;;;;;;;4.83;4.43;;;;;;;12.69;100.00;95691.53;7432252;19;20892;-74
2023/04/23 09:35:16;;;;;;;4.57;4.17;;;;;;;13.01;100.00;95715.88;7424209;19;20975;-74
2023/04/23 09:37:48;;;;;;;5.23;3.80;;;;;;;13.06;100.00;95743.22;7431374;19;20348;-75
2023/04/23 09:40:19;;;;;;;5.93;3.67;;;;;;;13.03;100.00;95737.53;7415173;19;20751;-74
2023/04/23 09:42:48;;;;;;;3.73;3.43;;;;;;;12.85;100.00;95739.13;7403129;19;20344;-75
2023/04/23 09:45:16;;;;;;;3.90;3.50;;;;;;;12.71;100.00;95723.00;7399495;19;20737;-74
2023/04/23 09:47:54;;;;;;;4.53;3.77;;;;;;;12.71;100.00;95737.03;7397873;19;20378;-76
2023/04/23 09:50:37;;;;;;;4.03;3.73;;;;;;;12.48;100.00;95687.75;7398032;19;20381;-74
2023/04/23 09:53:07;;;;;;;4.10;3.80;;;;;;;12.61;100.00;95695.16;7399975;19;20426;-74
2023/04/23 09:55:37;;;;;;;3.40;3.20;;;;;;;12.86;100.00;95713.38;7398840;19;20444;-74
2023/04/23 09:58:09;;;;;;;4.73;4.43;;;;;;;12.85;100.00;95698.56;7400161;19;20779;-74
2023/04/23 10:00:38;;;;;;;4.50;4.20;;;;;;;13.00;100.00;95711.69;7397862;19;20348;-74
2023/04/23 10:03:07;;;;;;;4.80;4.40;;;;;;;13.08;100.00;95720.53;7399461;19;20344;-74
2023/04/23 10:05:40;;;;;;;3.87;3.60;;;;;;;13.27;100.00;95731.09;7396576;19;20412;-75
2023/04/23 10:08:12;;;;;;;3.27;3.00;;;;;;;13.30;100.00;95703.06;7397182;19;20391;-74
2023/04/23 10:10:40;;;;;;;4.70;4.40;;;;;;;13.70;100.00;95721.03;7396684;19;20373;-75
2023/04/23 10:13:27;;;;;;;4.90;4.50;;;;;;;13.46;100.00;95693.03;7398425;19;20864;-75
2023/04/23 10:15:55;;;;;;;3.73;3.03;;;;;;;13.60;100.00;95685.22;7395470;19;20420;-75
2023/04/23 10:18:31;;;;;;;3.17;2.87;;;;;;;13.85;100.00;95706.03;7395745;19;20465;-74
2023/04/23 10:21:01;;;;;;;2.70;2.50;;;;;;;13.73;100.00;95703.59;7396939;19;20405;-75
2023/04/23 10:23:29;;;;;;;4.17;3.70;;;;;;;13.61;100.00;95673.47;7395605;19;20439;-75
2023/04/23 10:25:58;;;;;;;3.70;3.40;;;;;;;13.87;100.00;95715.16;7392850;19;20373;-74
2023/04/23 10:28:30;;;;;;;4.10;3.80;;;;;;;13.95;100.00;95726.66;7395117;19;20419;-76
2023/04/23 10:30:58;;;;;;;3.00;2.63;;;;;;;13.68;100.00;95686.09;7397117;19;20788;-75
2023/04/23 10:33:27;;;;;;;4.53;3.50;;;;;;;13.72;100.00;95718.00;7396439;19;20365;-76
2023/04/23 10:35:59;;;;;;;3.60;3.27;;;;;;;13.59;100.00;95690.91;7393168;19;20421;-75
2023/04/23 10:38:27;;;;;;;3.47;3.17;;;;;;;13.14;100.00;95668.69;7395442;19;20728;-76
2023/04/23 10:40:57;;;;;;;3.33;3.13;;;;;;;13.27;100.00;95703.78;7394914;19;20345;-75
2023/04/23 10:43:24;;;;;;;3.73;3.43;;;;;;;12.73;100.00;95667.69;7396329;19;20419;-75
2023/04/23 10:45:51;;;;;;;3.77;3.47;;;;;;;12.95;100.00;95688.13;7393930;19;21000;-75
2023/04/23 10:48:19;;;;;;;3.83;3.50;;;;;;;12.88;100.00;95668.69;7394536;19;20896;-75
2023/04/23 10:50:46;;;;;;;2.97;2.77;;;;;;;12.77;100.00;95662.44;7393043;19;20408;-75
2023/04/23 10:53:35;;;;;;;3.47;3.20;;;;;;;12.82;100.00;95683.34;7403613;19;20373;-74
2023/04/23 10:56:06;;;;;;;3.70;2.80;;;;;;;13.13;100.00;95709.63;7421726;19;20389;-74
2023/04/23 10:58:50;;;;;;;3.00;2.80;;;;;;;13.14;100.00;95705.06;7409505;19;20899;-75
2023/04/23 11:01:18;;;;;;;3.50;3.03;;;;;;;12.89;100.00;95655.06;7395678;19;20329;-75
2023/04/23 11:03:46;;;;;;;2.93;2.73;;;;;;;12.97;100.00;95666.53;7398402;19;20459;-74
2023/04/23 11:06:38;;;;;;;4.40;3.30;;;;;;;12.72;100.00;95663.53;7394197;19;20472;-74
2023/04/23 11:09:33;;;;;;;3.20;2.80;;;;;;;12.64;100.00;95677.78;7394552;19;20732;-74
2023/04/23 11:12:01;;;;;;;3.10;2.90;;;;;;;12.63;100.00;95698.22;7394767;19;20714;-74
2023/04/23 11:14:44;;;;;;;4.13;3.83;;;;;;;12.67;100.00;95693.75;7396122;19;20420;-74
2023/04/23 11:17:12;;;;;;;3.50;3.20;;;;;;;12.69;100.00;95680.91;7396872;19;20385;-74
2023/04/23 11:19:41;;;;;;;6.03;3.50;;;;;;;12.65;100.00;95655.44;7397472;19;20409;-74
2023/04/23 11:22:14;;;;;;;4.93;4.20;;;;;;;12.88;100.00;95677.41;7395457;19;20399;-73
2023/04/23 11:24:43;;;;;;;3.37;2.97;;;;;;;12.72;100.00;95642.28;7396055;19;20432;-73
2023/04/23 11:27:16;;;;;;;2.67;2.47;;;;;;;13.07;100.00;95671.22;7395328;19;20517;-74
2023/04/23 11:29:45;;;;;;;4.67;4.07;;;;;;;13.20;100.00;95663.84;7393194;19;20451;-73